Time;durP1;ratioP1;P1;durP2;ratioP2;P2;SDS_P1;SDS_P2;PMS_P1;PMS_P2;Temp;Humidity;BMP_temperature;BMP_pressure;BME280_temperature;BME280_humidity;BME280_pressure;Samples;Min_cycle;Max_cycle;Signal;HPM_P1;HPM_P2
2022/12/19 00:00:34;;;;;;;21.17;12.10;;;-1.20;99.90;-1.20;98491.00;;;;4963978;28;20450;-85
2022/12/19 00:03:23;;;;;;;25.20;13.07;;;-2.10;99.90;-1.10;98499.00;;;;4971518;28;20529;-85
2022/12/19 00:06:12;;;;;;;16.27;10.40;;;-2.00;99.90;-1.20;98492.00;;;;4985426;28;20808;-85
2022/12/19 00:09:01;;;;;;;20.30;12.50;;;-2.10;99.90;-1.10;98482.00;;;;5053130;28;21076;-85
2022/12/19 00:11:51;;;;;;;15.73;10.07;;;-2.10;99.90;-1.20;98485.00;;;;5005943;28;20452;-85
2022/12/19 00:14:39;;;;;;;18.90;12.67;;;-2.10;99.90;-1.10;98481.00;;;;4952618;28;20813;-85
2022/12/19 00:17:28;;;;;;;19.27;10.87;;;-2.10;99.90;-1.10;98483.00;;;;4947104;28;20478;-85
2022/12/19 00:20:17;;;;;;;24.90;13.07;;;-2.10;99.90;-1.10;98494.00;;;;4964257;28;20428;-84
2022/12/19 00:23:06;;;;;;;16.57;10.13;;;-2.00;99.90;-1.10;98502.00;;;;4944053;29;20464;-84
2022/12/19 00:25:55;;;;;;;21.73;10.57;;;-2.00;99.90;-1.30;98504.00;;;;4967649;28;20435;-85
2022/12/19 00:28:48;;;;;;;23.47;12.03;;;-1.60;99.90;-1.30;98505.00;;;;4955188;28;20478;-85
2022/12/19 00:31:37;;;;;;;19.47;11.17;;;-2.10;99.90;-1.30;98509.00;;;;4951876;28;20858;-85
2022/12/19 00:34:26;;;;;;;14.80;11.73;;;-1.10;99.90;-1.20;98522.00;;;;4975385;28;20427;-85
2022/12/19 00:37:15;;;;;;;19.80;13.87;;;-2.10;99.90;-1.40;98517.00;;;;5037377;28;20478;-85
2022/12/19 00:40:04;;;;;;;22.77;11.67;;;-2.10;99.90;-1.30;98517.00;;;;5017751;28;20530;-85
2022/12/19 00:42:53;;;;;;;21.83;11.87;;;-2.10;99.90;-1.40;98526.00;;;;4942846;28;20572;-85
2022/12/19 00:45:44;;;;;;;18.30;11.20;;;-2.10;99.90;-1.30;98524.00;;;;4971405;28;20464;-85
2022/12/19 00:48:33;;;;;;;18.80;11.47;;;-1.30;99.90;-1.30;98510.00;;;;4966366;28;20525;-84
2022/12/19 00:51:24;;;;;;;19.77;13.07;;;-2.10;99.90;-1.40;98503.00;;;;4966075;28;20837;-85
2022/12/19 00:54:13;;;;;;;24.70;13.60;;;-0.20;99.90;-1.40;98494.00;;;;4956492;28;20440;-85
2022/12/19 00:57:02;;;;;;;18.73;12.17;;;-1.70;99.90;-1.50;98490.00;;;;4974381;28;20561;-84
2022/12/19 00:59:50;;;;;;;24.07;11.03;;;-2.10;99.90;-1.50;98486.00;;;;4949765;28;20424;-85
2022/12/19 01:02:40;;;;;;;23.40;13.23;;;-2.20;99.90;-1.50;98475.00;;;;4992947;28;20456;-85
2022/12/19 01:05:29;;;;;;;18.93;12.70;;;-2.20;99.90;-1.40;98476.00;;;;4958800;28;20492;-84
2022/12/19 01:08:18;;;;;;;20.40;12.27;;;-1.20;99.90;-1.40;98478.00;;;;5002203;28;20427;-84
2022/12/19 01:11:07;;;;;;;23.00;12.43;;;-1.40;99.90;-1.60;98484.00;;;;4960929;28;20954;-84
2022/12/19 01:13:55;;;;;;;16.37;11.67;;;-2.20;99.90;-1.40;98478.00;;;;4969588;28;21009;-85
2022/12/19 01:16:43;;;;;;;19.07;11.90;;;-1.30;99.90;-1.50;98477.00;;;;4946399;28;20575;-85
2022/12/19 01:19:33;;;;;;;16.37;11.40;;;-2.10;99.90;-1.40;98480.00;;;;4975218;28;20819;-85
2022/12/19 01:22:24;;;;;;;16.13;11.63;;;-2.20;99.90;-1.40;98490.00;;;;4946817;28;21043;-85
2022/12/19 01:25:14;;;;;;;17.90;11.33;;;-2.20;99.90;-1.40;98495.00;;;;4992104;28;20521;-85
2022/12/19 01:28:03;;;;;;;19.70;12.57;;;-2.20;99.90;-1.40;98489.00;;;;4976811;28;20450;-85
2022/12/19 01:31:01;;;;;;;21.47;12.30;;;-2.10;99.90;-1.30;98477.00;;;;4974417;28;20440;-85
2022/12/19 01:33:50;;;;;;;19.33;11.63;;;-2.10;99.90;-1.20;98478.00;;;;4976862;28;20475;-85
2022/12/19 01:36:40;;;;;;;19.37;12.90;;;-1.70;99.90;-1.30;98454.00;;;;5011528;28;20520;-85
2022/12/19 01:39:29;;;;;;;15.03;11.87;;;-2.10;99.90;-1.10;98439.00;;;;5013262;28;20525;-86
2022/12/19 01:42:21;;;;;;;22.53;13.40;;;-2.10;99.90;-1.20;98444.00;;;;4976498;28;20452;-85
2022/12/19 01:45:35;;;;;;;21.93;11.97;;;-2.10;99.90;-1.30;98437.00;;;;4995303;28;20797;-85
2022/12/19 01:48:32;;;;;;;18.00;11.63;;;-2.10;99.90;-1.10;98424.00;;;;4951661;28;20455;-85
2022/12/19 01:51:24;;;;;;;16.67;10.07;;;-2.10;99.90;-1.10;98426.00;;;;5014291;28;20814;-85
2022/12/19 01:54:23;;;;;;;16.13;10.37;;;-2.00;99.90;-1.30;98422.00;;;;5024867;28;20436;-85
2022/12/19 01:57:15;;;;;;;15.53;11.20;;;-1.30;99.90;-1.40;98427.00;;;;4944988;28;20475;-85
2022/12/19 02:00:08;;;;;;;16.83;10.03;;;-2.10;99.90;-1.70;98425.00;;;;4950793;28;20507;-85
2022/12/19 02:03:02;;;;;;;17.43;11.87;;;-2.10;99.90;-1.60;98418.00;;;;4944420;28;20448;-85
2022/12/19 02:05:52;;;;;;;12.83;9.47;;;-1.30;99.90;-1.60;98422.00;;;;4959946;28;20467;-85
2022/12/19 02:08:43;;;;;;;16.17;9.83;;;-2.20;99.90;-1.50;98425.00;;;;4936800;29;20432;-85
2022/12/19 02:11:36;;;;;;;21.33;10.80;;;-1.30;99.90;-1.40;98433.00;;;;5018891;28;20455;-85
2022/12/19 02:14:25;;;;;;;14.57;10.10;;;-2.20;99.90;-1.30;98435.00;;;;4965960;28;20517;-85
2022/12/19 02:17:23;;;;;;;20.03;11.87;;;-2.20;99.90;-1.20;98443.00;;;;4949079;29;20504;-84
2022/12/19 02:21:04;;;;;;;17.70;11.20;;;-2.20;99.90;-1.20;98426.00;;;;4960398;28;20428;-85
2022/12/19 02:24:45;;;;;;;14.57;10.43;;;-2.10;99.90;-1.20;98419.00;;;;4960289;28;20998;-85
2022/12/19 02:28:03;;;;;;;19.13;9.57;;;-2.10;99.90;-1.20;98416.00;;;;4983410;28;20443;-85
2022/12/19 02:31:06;;;;;;;17.03;11.23;;;-2.10;99.90;-1.20;98415.00;;;;4949021;28;20523;-85
2022/12/19 02:34:03;;;;;;;17.23;10.93;;;-2.10;99.90;-1.10;98414.00;;;;4945100;28;20455;-85
2022/12/19 02:36:59;;;;;;;23.93;11.47;;;-2.00;99.90;-1.10;98421.00;;;;4956027;28;20464;-85
2022/12/19 02:39:55;;;;;;;13.17;10.33;;;-2.00;99.90;-1.20;98399.00;;;;4951560;28;20969;-85
2022/12/19 02:42:48;;;;;;;15.43;10.20;;;-1.80;99.90;-1.40;98419.00;;;;4949211;28;20463;-85
2022/12/19 02:45:39;;;;;;;15.00;9.80;;;-2.10;99.90;-1.50;98416.00;;;;4955346;28;20423;-84
2022/12/19 02:48:30;;;;;;;14.77;10.23;;;-1.40;99.90;-1.50;98411.00;;;;5029704;28;20431;-85
2022/12/19 02:51:18;;;;;;;21.30;10.30;;;-2.10;99.90;-1.40;98410.00;;;;5048725;28;20442;-87
2022/12/19 02:54:08;;;;;;;18.43;9.23;;;-2.20;99.90;-1.30;98401.00;;;;5023743;28;20440;-88
2022/12/19 02:57:05;;;;;;;19.43;10.97;;;-2.10;99.90;-1.20;98408.00;;;;5049711;28;20801;-85
2022/12/19 03:00:04;;;;;;;17.40;10.80;;;-2.10;99.90;-1.30;98405.00;;;;5035465;28;20432;-85
2022/12/19 03:03:01;;;;;;;21.57;11.83;;;-1.10;99.90;-1.40;98394.00;;;;5023571;28;20797;-85
2022/12/19 03:06:03;;;;;;;15.93;9.17;;;-2.10;99.90;-1.50;98398.00;;;;5038776;28;20794;-85
2022/12/19 03:09:00;;;;;;;14.57;8.77;;;-2.20;99.90;-1.60;98393.00;;;;4959860;28;20815;-85
2022/12/19 03:12:02;;;;;;;18.90;10.47;;;-2.20;99.90;-1.50;98404.00;;;;4952782;28;20478;-85
2022/12/19 03:14:53;;;;;;;13.83;9.03;;;-2.20;99.90;-1.30;98395.00;;;;5011653;28;20415;-85
2022/12/19 03:17:43;;;;;;;14.03;8.93;;;-1.30;99.90;-1.20;98387.00;;;;4962850;28;20468;-85
2022/12/19 03:20:47;;;;;;;14.23;9.47;;;-2.20;99.90;-1.10;98396.00;;;;4998532;28;20451;-85
2022/12/19 03:23:38;;;;;;;16.40;11.20;;;-2.20;99.90;-1.20;98385.00;;;;5049009;28;20542;-85
2022/12/19 03:26:31;;;;;;;19.67;10.13;;;-2.10;99.90;-1.10;98390.00;;;;4957079;28;20428;-85
2022/12/19 03:29:26;;;;;;;20.33;10.00;;;-1.20;99.90;-1.10;98395.00;;;;4968251;28;20435;-85
2022/12/19 03:32:18;;;;;;;13.67;9.23;;;-2.10;99.90;-1.10;98386.00;;;;4960005;28;20869;-85
2022/12/19 03:35:11;;;;;;;15.37;9.50;;;-2.10;99.90;-1.10;98386.00;;;;4977382;28;20925;-85
2022/12/19 03:38:03;;;;;;;18.10;11.23;;;-2.10;99.90;-1.20;98380.00;;;;4990207;28;20458;-85
2022/12/19 03:40:55;;;;;;;16.83;9.63;;;-2.00;99.90;-1.30;98371.00;;;;5031269;28;20931;-85
2022/12/19 03:43:44;;;;;;;11.73;8.10;;;-2.10;99.90;-1.50;98360.00;;;;4948968;28;20460;-85
2022/12/19 03:46:40;;;;;;;20.03;11.40;;;-2.10;99.90;-1.40;98371.00;;;;4976336;28;20514;-85
2022/12/19 03:49:29;;;;;;;17.00;9.63;;;-2.10;99.90;-1.50;98362.00;;;;4940145;28;20472;-85
2022/12/19 03:52:29;;;;;;;12.57;9.23;;;-2.10;99.90;-1.60;98382.00;;;;4938396;28;20461;-85
2022/12/19 03:55:22;;;;;;;15.67;8.90;;;-2.20;99.90;-1.70;98384.00;;;;4974216;28;20852;-85
2022/12/19 03:58:18;;;;;;;17.27;11.17;;;-2.20;99.90;-1.50;98393.00;;;;4996944;28;20478;-85
2022/12/19 04:01:07;;;;;;;20.80;10.87;;;-2.30;99.90;-1.30;98387.00;;;;4986512;28;20432;-85
2022/12/19 04:03:58;;;;;;;17.43;9.90;;;-2.20;99.90;-1.20;98378.00;;;;4939639;29;20835;-85
2022/12/19 04:06:48;;;;;;;14.53;11.63;;;-2.00;99.90;-1.30;98388.00;;;;4952012;28;20859;-85
2022/12/19 04:09:39;;;;;;;16.33;10.87;;;-2.20;99.90;-1.30;98389.00;;;;4983061;28;20840;-85
2022/12/19 04:12:34;;;;;;;13.60;9.87;;;-2.20;99.90;-1.30;98375.00;;;;4973466;28;20455;-85
2022/12/19 04:15:35;;;;;;;19.73;10.87;;;-2.20;99.90;-1.20;98382.00;;;;4999111;28;20439;-85
2022/12/19 04:18:24;;;;;;;16.17;10.20;;;-2.10;99.90;-1.10;98385.00;;;;5006505;28;20518;-85
2022/12/19 04:21:17;;;;;;;19.00;11.03;;;-2.10;99.90;-1.20;98365.00;;;;4941968;28;20511;-84
2022/12/19 04:24:13;;;;;;;16.23;8.83;;;-2.10;99.90;-1.10;98375.00;;;;4939946;28;20439;-85
2022/12/19 04:27:04;;;;;;;11.50;9.53;;;-2.10;99.90;-1.10;98363.00;;;;4948334;28;20444;-84
2022/12/19 04:29:57;;;;;;;19.23;11.50;;;-2.00;99.90;-1.20;98369.00;;;;4944061;28;20446;-85
2022/12/19 04:32:48;;;;;;;15.93;8.77;;;-1.80;99.90;-1.10;98368.00;;;;4956472;28;20967;-84
2022/12/19 04:35:38;;;;;;;16.50;9.40;;;-2.00;99.90;-1.20;98369.00;;;;4990253;28;20451;-85
2022/12/19 04:38:27;;;;;;;17.87;9.50;;;-0.70;99.90;-1.30;98367.00;;;;4947205;28;20855;-85
2022/12/19 04:41:16;;;;;;;15.83;8.87;;;-2.00;99.90;-1.40;98360.00;;;;4954246;28;20440;-85
2022/12/19 04:44:05;;;;;;;14.37;9.03;;;-2.10;99.90;-1.40;98354.00;;;;4985697;28;20536;-85
2022/12/19 04:46:54;;;;;;;16.17;10.87;;;-2.10;99.90;-1.40;98359.00;;;;4989913;28;20431;-84
2022/12/19 04:49:44;;;;;;;14.33;9.53;;;-2.10;99.90;-1.30;98355.00;;;;4946940;28;20440;-85
2022/12/19 04:52:33;;;;;;;14.80;9.43;;;-2.10;99.90;-1.40;98356.00;;;;4976952;28;20432;-85
2022/12/19 04:55:21;;;;;;;12.93;9.63;;;-2.10;99.90;-1.40;98352.00;;;;4964850;28;20969;-85
2022/12/19 04:58:10;;;;;;;15.03;8.37;;;-2.10;99.90;-1.40;98349.00;;;;5022917;28;20525;-85
2022/12/19 05:01:01;;;;;;;14.13;8.07;;;-2.10;99.90;-1.40;98350.00;;;;5028866;28;20982;-85
2022/12/19 05:03:50;;;;;;;14.93;10.20;;;-2.10;99.90;-1.30;98341.00;;;;4946060;28;20560;-85
2022/12/19 05:06:43;;;;;;;17.07;9.00;;;-2.10;99.90;-1.20;98354.00;;;;4948891;28;21005;-85
2022/12/19 05:09:32;;;;;;;16.57;9.90;;;-1.70;99.90;-1.10;98344.00;;;;4948408;28;20803;-85
2022/12/19 05:12:21;;;;;;;18.37;8.30;;;-1.10;99.90;-1.20;98336.00;;;;4952319;28;20475;-86
2022/12/19 05:15:10;;;;;;;15.27;9.83;;;-2.00;99.90;-1.30;98347.00;;;;4951526;28;20436;-87
2022/12/19 05:17:59;;;;;;;11.43;9.43;;;-2.10;99.90;-1.30;98338.00;;;;4958729;28;20495;-87
2022/12/19 05:20:48;;;;;;;16.70;8.83;;;-2.10;99.90;-1.20;98341.00;;;;4948687;29;20984;-84
2022/12/19 05:23:39;;;;;;;16.40;9.20;;;-1.70;99.90;-1.10;98361.00;;;;4976168;28;20467;-84
2022/12/19 05:26:27;;;;;;;21.23;12.37;;;-1.30;99.90;-1.20;98347.00;;;;4966222;28;20439;-84
2022/12/19 05:29:17;;;;;;;13.33;9.60;;;-2.00;99.90;-1.20;98340.00;;;;4947856;28;20526;-84
2022/12/19 05:32:05;;;;;;;18.97;10.03;;;-2.00;99.90;-1.20;98336.00;;;;4957722;28;20455;-84
2022/12/19 05:34:54;;;;;;;18.60;11.27;;;-2.00;99.90;-1.20;98335.00;;;;4980500;28;20993;-84
2022/12/19 05:37:43;;;;;;;17.10;9.37;;;-2.10;99.90;-1.20;98335.00;;;;4945428;28;20939;-83
2022/12/19 05:40:33;;;;;;;14.90;9.23;;;-2.10;99.90;-1.20;98346.00;;;;4945063;28;20436;-83
2022/12/19 05:43:23;;;;;;;14.47;10.10;;;-2.10;99.90;-1.20;98344.00;;;;4953947;28;20953;-83
2022/12/19 05:46:12;;;;;;;17.23;8.90;;;-2.10;99.90;-1.30;98338.00;;;;4946883;29;20440;-84
2022/12/19 05:49:01;;;;;;;14.30;8.00;;;-2.10;99.90;-1.30;98336.00;;;;5000679;28;20444;-84
2022/12/19 05:51:49;;;;;;;13.90;7.83;;;-2.20;99.90;-1.40;98335.00;;;;4943193;28;20441;-84
2022/12/19 05:54:38;;;;;;;12.83;9.57;;;-2.20;99.90;-1.50;98348.00;;;;4962813;28;20424;-84
2022/12/19 05:57:28;;;;;;;13.40;9.47;;;-2.20;99.90;-1.50;98352.00;;;;4943490;28;20532;-84
2022/12/19 06:00:17;;;;;;;13.27;8.77;;;-1.60;99.90;-1.50;98353.00;;;;4942853;28;20590;-84
2022/12/19 06:03:06;;;;;;;16.53;9.30;;;-2.30;99.90;-1.50;98347.00;;;;4947935;28;20831;-84
2022/12/19 06:05:55;;;;;;;12.77;8.27;;;-2.30;99.90;-1.60;98343.00;;;;4993354;28;20947;-84
2022/12/19 06:08:44;;;;;;;13.47;7.83;;;-2.30;99.90;-1.80;98356.00;;;;4977295;28;20529;-84
2022/12/19 06:11:33;;;;;;;13.90;8.83;;;-1.40;99.90;-1.90;98354.00;;;;4948300;28;20483;-84
2022/12/19 06:14:23;;;;;;;12.77;9.27;;;-2.40;99.90;-1.70;98350.00;;;;4968516;28;20516;-84
2022/12/19 06:17:12;;;;;;;15.50;9.80;;;-2.40;99.90;-1.70;98358.00;;;;4968014;28;20463;-84
2022/12/19 06:20:00;;;;;;;13.47;10.37;;;-2.40;99.90;-1.90;98351.00;;;;4975216;28;20475;-83
2022/12/19 06:22:49;;;;;;;18.33;10.43;;;-2.50;99.90;-1.90;98365.00;;;;4944437;28;20918;-84
2022/12/19 06:25:38;;;;;;;19.03;10.23;;;-2.50;99.90;-2.00;98356.00;;;;4946070;28;20433;-84
2022/12/19 06:28:28;;;;;;;17.37;10.17;;;-2.60;99.90;-1.90;98345.00;;;;4953669;28;20436;-84
2022/12/19 06:31:20;;;;;;;10.80;9.07;;;-2.60;99.90;-1.90;98350.00;;;;4946348;28;20795;-84
2022/12/19 06:34:10;;;;;;;14.50;9.60;;;-2.60;99.90;-2.00;98345.00;;;;4963018;28;20420;-84
2022/12/19 06:36:59;;;;;;;11.20;7.00;;;-2.70;99.90;-2.00;98348.00;;;;4948297;28;20452;-84
2022/12/19 06:39:51;;;;;;;15.87;10.40;;;-2.70;99.90;-2.00;98338.00;;;;4935822;28;20465;-84
2022/12/19 06:42:38;;;;;;;13.80;8.80;;;-2.70;99.90;-2.10;98342.00;;;;5050296;28;20508;-84
2022/12/19 06:45:27;;;;;;;15.23;10.57;;;-2.70;99.90;-2.30;98342.00;;;;4959327;28;20475;-84
2022/12/19 06:48:17;;;;;;;12.83;8.17;;;-2.10;99.90;-2.20;98351.00;;;;4967103;28;20440;-84
2022/12/19 06:51:07;;;;;;;11.33;7.77;;;-2.80;99.90;-2.30;98349.00;;;;4944802;28;20455;-84
2022/12/19 06:53:55;;;;;;;14.40;9.73;;;-2.80;99.90;-2.50;98352.00;;;;4970620;28;20459;-84
2022/12/19 06:56:45;;;;;;;19.90;11.70;;;-2.80;99.90;-2.60;98356.00;;;;5050134;28;20446;-84
2022/12/19 06:59:34;;;;;;;17.53;10.97;;;-3.00;99.90;-2.40;98345.00;;;;5046849;28;20621;-84
2022/12/19 07:02:30;;;;;;;19.40;10.97;;;-3.00;99.90;-2.50;98343.00;;;;5049563;28;20463;-84
2022/12/19 07:05:20;;;;;;;14.60;9.27;;;-3.00;99.90;-2.60;98339.00;;;;4965230;28;20439;-84
2022/12/19 07:08:09;;;;;;;22.07;12.70;;;-3.10;99.90;-2.60;98345.00;;;;4979551;28;20431;-84
2022/12/19 07:10:58;;;;;;;17.30;9.17;;;-3.00;99.90;-2.60;98353.00;;;;4972129;28;20459;-84
2022/12/19 07:13:47;;;;;;;19.40;9.43;;;-3.10;99.90;-2.30;98346.00;;;;4957964;28;20517;-84
2022/12/19 07:16:36;;;;;;;15.40;10.90;;;-3.00;99.90;-2.10;98357.00;;;;4949609;28;20434;-84
2022/12/19 07:19:26;;;;;;;16.70;9.27;;;-3.00;99.90;-2.30;98355.00;;;;4953404;28;20464;-84
2022/12/19 07:22:16;;;;;;;12.40;7.87;;;-3.00;99.90;-2.40;98353.00;;;;4985587;28;20827;-84
2022/12/19 07:25:06;;;;;;;15.77;8.57;;;-3.00;99.90;-2.40;98369.00;;;;4984589;28;20419;-84
2022/12/19 07:27:55;;;;;;;10.53;7.47;;;-3.00;99.90;-2.40;98372.00;;;;4959648;28;20479;-84
2022/12/19 07:30:44;;;;;;;16.70;11.10;;;-3.00;99.90;-2.40;98377.00;;;;4979156;28;20431;-84
2022/12/19 07:33:33;;;;;;;11.77;6.73;;;-3.00;99.90;-2.60;98368.00;;;;4954430;28;20455;-84
2022/12/19 07:36:21;;;;;;;13.00;8.00;;;-3.00;99.90;-2.60;98370.00;;;;4945819;28;20441;-84
2022/12/19 07:39:11;;;;;;;16.37;9.43;;;-3.00;99.90;-2.50;98379.00;;;;4947733;29;20437;-84
2022/12/19 07:42:00;;;;;;;17.77;9.33;;;-3.00;99.90;-2.20;98379.00;;;;4950352;28;20919;-84
2022/12/19 07:44:49;;;;;;;8.40;6.03;;;-2.90;99.90;-2.10;98383.00;;;;4960145;28;20963;-84
2022/12/19 07:47:37;;;;;;;12.30;8.07;;;-2.80;99.90;-2.10;98370.00;;;;4977684;28;20437;-84
2022/12/19 07:50:26;;;;;;;14.23;8.10;;;-2.80;99.90;-1.90;98377.00;;;;5045066;28;20806;-84
2022/12/19 07:53:15;;;;;;;11.63;7.67;;;-2.70;99.90;-1.80;98388.00;;;;5049468;28;20439;-84
2022/12/19 07:56:06;;;;;;;11.27;8.30;;;-2.60;99.90;-1.80;98387.00;;;;5024278;28;20436;-84
2022/12/19 07:58:55;;;;;;;11.77;8.33;;;-2.60;99.90;-1.80;98395.00;;;;4949990;28;20527;-84
2022/12/19 08:01:44;;;;;;;11.73;7.33;;;-2.50;99.90;-1.70;98392.00;;;;4974109;28;20798;-84
2022/12/19 08:04:33;;;;;;;24.23;7.67;;;-2.50;99.90;-1.60;98387.00;;;;4955878;28;20433;-84
2022/12/19 08:07:22;;;;;;;10.90;7.17;;;-2.40;99.90;-1.50;98397.00;;;;4958949;28;20464;-84
2022/12/19 08:10:13;;;;;;;10.00;7.13;;;-2.40;99.90;-1.40;98397.00;;;;5055013;28;20466;-84
2022/12/19 08:13:03;;;;;;;15.90;9.07;;;-2.30;99.90;-1.40;98393.00;;;;4963191;28;20973;-84
2022/12/19 08:15:52;;;;;;;9.50;6.77;;;-2.20;99.90;-1.40;98396.00;;;;4984377;28;20800;-84
2022/12/19 08:18:41;;;;;;;14.07;7.70;;;-2.20;99.90;-1.40;98383.00;;;;4993720;28;20426;-84
2022/12/19 08:21:30;;;;;;;12.73;7.97;;;-2.20;99.90;-1.30;98381.00;;;;5006115;28;20480;-84
2022/12/19 08:24:18;;;;;;;12.77;7.83;;;-2.20;99.90;-1.10;98390.00;;;;4981639;28;20439;-84
2022/12/19 08:27:07;;;;;;;13.10;7.60;;;-2.10;99.90;-1.00;98395.00;;;;4970519;28;21026;-84
2022/12/19 08:29:57;;;;;;;14.13;9.00;;;-1.30;99.90;-1.00;98395.00;;;;4984410;28;20529;-84
2022/12/19 08:32:46;;;;;;;13.10;8.87;;;-1.90;99.90;-0.90;98401.00;;;;4952591;28;20820;-84
2022/12/19 08:35:36;;;;;;;13.47;8.47;;;-1.80;99.90;-0.80;98393.00;;;;4979424;28;20517;-84
2022/12/19 08:38:25;;;;;;;12.20;8.17;;;-1.80;99.90;-0.80;98393.00;;;;4950798;29;20798;-84
2022/12/19 08:41:14;;;;;;;15.40;9.40;;;-1.30;99.90;-0.60;98393.00;;;;4941362;28;20502;-83
2022/12/19 08:44:03;;;;;;;13.23;9.60;;;-0.80;99.90;-0.50;98395.00;;;;4948632;28;21027;-84
2022/12/19 08:46:53;;;;;;;16.27;9.97;;;-1.50;99.90;-0.50;98400.00;;;;4967551;28;20455;-84
2022/12/19 08:49:42;;;;;;;19.77;12.33;;;-1.30;99.90;-0.40;98401.00;;;;4939987;28;20437;-83
2022/12/19 08:52:30;;;;;;;13.37;9.87;;;-1.40;99.90;-0.60;98395.00;;;;4987854;28;20447;-84
2022/12/19 08:55:19;;;;;;;13.27;10.23;;;-1.40;99.90;-0.60;98395.00;;;;4988617;28;20460;-84
2022/12/19 08:58:08;;;;;;;16.10;9.30;;;-1.10;99.90;-0.50;98407.00;;;;5053688;28;20432;-84
2022/12/19 09:01:00;;;;;;;14.03;8.63;;;-1.40;99.90;-0.20;98404.00;;;;5029331;28;20468;-84
2022/12/19 09:03:58;;;;;;;15.30;9.10;;;-1.00;99.90;-0.10;98416.00;;;;4963891;28;20835;-84
2022/12/19 09:06:46;;;;;;;14.80;9.87;;;-1.20;99.90;-0.10;98406.00;;;;4987154;28;20790;-84
2022/12/19 09:09:35;;;;;;;17.40;9.53;;;-1.20;99.90;-0.30;98410.00;;;;4964374;28;20432;-84
2022/12/19 09:12:24;;;;;;;18.00;10.27;;;-1.10;99.90;-0.40;98405.00;;;;4945825;29;20521;-84
2022/12/19 09:15:12;;;;;;;14.03;9.30;;;-1.10;99.90;-0.10;98410.00;;;;4950148;28;20525;-84
2022/12/19 09:18:01;;;;;;;14.40;9.33;;;-1.10;99.90;0.10;98399.00;;;;5042202;28;20873;-84
2022/12/19 09:20:53;;;;;;;19.13;10.93;;;-1.00;99.90;0.20;98409.00;;;;5027562;28;20887;-84
2022/12/19 09:23:47;;;;;;;15.60;9.17;;;-0.90;99.90;0.40;98416.00;;;;4973071;28;21012;-85
2022/12/19 09:26:37;;;;;;;18.07;11.40;;;-0.80;99.90;0.30;98411.00;;;;4942561;28;20468;-84
2022/12/19 09:29:27;;;;;;;27.83;11.80;;;-0.70;99.90;0.50;98408.00;;;;4964335;28;20431;-84
2022/12/19 09:32:18;;;;;;;20.07;10.67;;;-0.60;99.90;0.60;98413.00;;;;4966116;28;20492;-84
2022/12/19 09:35:07;;;;;;;14.90;9.83;;;-0.60;99.90;0.50;98412.00;;;;5024224;28;20428;-84
2022/12/19 09:37:58;;;;;;;13.93;9.27;;;-0.50;99.90;0.50;98413.00;;;;4945432;28;20946;-84
2022/12/19 09:41:07;;;;;;;17.13;10.27;;;0.90;99.90;0.60;98403.00;;;;4967674;28;20822;-84
2022/12/19 09:44:09;;;;;;;16.20;10.77;;;0.30;99.90;0.90;98404.00;;;;4976681;28;20962;-85
2022/12/19 09:47:01;;;;;;;18.30;9.70;;;-0.20;99.90;1.10;98402.00;;;;4948575;28;20857;-85
2022/12/19 09:49:52;;;;;;;12.07;9.30;;;-0.20;99.90;1.20;98406.00;;;;4954662;28;20857;-85
2022/12/19 09:52:57;;;;;;;17.63;9.40;;;0.10;99.90;1.50;98392.00;;;;4951241;29;20464;-85
2022/12/19 09:55:48;;;;;;;23.97;12.03;;;0.40;99.90;1.40;98386.00;;;;4939763;28;20653;-84
2022/12/19 09:58:42;;;;;;;18.83;10.17;;;0.20;99.90;1.70;98382.00;;;;4960097;28;20429;-85
2022/12/19 10:01:48;;;;;;;14.07;8.57;;;0.40;99.90;1.50;98381.00;;;;4941906;28;20475;-84
2022/12/19 10:04:38;;;;;;;18.17;9.43;;;0.80;99.90;2.00;98378.00;;;;4952200;28;21039;-84
2022/12/19 10:07:26;;;;;;;17.47;10.87;;;1.10;99.90;2.10;98376.00;;;;4947443;28;20498;-85
2022/12/19 10:10:45;;;;;;;14.30;9.37;;;1.10;99.90;2.20;98372.00;;;;4951267;28;20625;-85
2022/12/19 10:13:56;;;;;;;14.77;9.67;;;1.00;99.90;1.90;98376.00;;;;4974287;28;20451;-85
2022/12/19 10:16:59;;;;;;;13.20;8.10;;;1.30;99.90;2.50;98369.00;;;;4958974;28;20432;-84
2022/12/19 10:20:24;;;;;;;15.73;9.33;;;1.20;99.90;3.00;98370.00;;;;4950622;28;20440;-84
2022/12/19 10:23:57;;;;;;;15.77;9.97;;;1.50;99.90;3.40;98383.00;;;;4954688;28;20951;-85
2022/12/19 10:26:51;;;;;;;16.83;11.50;;;2.30;99.90;4.10;98383.00;;;;4943925;29;20445;-85
2022/12/19 10:29:56;;;;;;;21.63;10.47;;;3.90;99.90;4.70;98384.00;;;;4983229;28;20432;-85
2022/12/19 10:33:01;;;;;;;17.10;11.33;;;4.10;99.90;4.50;98379.00;;;;4960043;28;20467;-85
2022/12/19 10:35:55;;;;;;;18.37;11.80;;;4.70;99.90;4.20;98395.00;;;;4953326;28;20204;-84
2022/12/19 10:38:54;;;;;;;13.30;9.67;;;4.80;99.90;3.80;98380.00;;;;4955247;28;20230;-84
2022/12/19 10:41:45;;;;;;;18.97;10.73;;;4.30;99.90;3.30;98371.00;;;;4957468;28;20499;-84
2022/12/19 10:44:39;;;;;;;32.07;11.80;;;3.70;99.90;2.90;98357.00;;;;4952777;28;20209;-85
2022/12/19 10:47:28;;;;;;;17.37;10.03;;;3.10;99.90;2.90;98348.00;;;;4978851;28;20200;-84
2022/12/19 10:50:22;;;;;;;13.77;8.93;;;2.60;99.90;2.70;98361.00;;;;4979857;28;20573;-84
2022/12/19 10:53:13;;;;;;;15.43;8.43;;;2.40;99.90;2.50;98343.00;;;;4985790;28;20842;-84
2022/12/19 10:56:12;;;;;;;15.57;9.77;;;1.90;99.90;2.70;98354.00;;;;4996341;28;20465;-84
2022/12/19 10:59:01;;;;;;;13.60;9.63;;;0.50;99.90;2.60;98352.00;;;;4975269;28;20444;-85
2022/12/19 11:01:52;;;;;;;14.57;10.00;;;1.80;99.90;2.40;98357.00;;;;4950467;28;20851;-84
2022/12/19 11:04:40;;;;;;;75.27;13.37;;;1.50;99.90;2.30;98348.00;;;;5007821;28;20429;-84
2022/12/19 11:07:29;;;;;;;26.37;12.37;;;1.40;99.90;2.40;98340.00;;;;4945389;28;20448;-85
2022/12/19 11:10:37;;;;;;;20.40;13.07;;;1.30;99.90;2.30;98347.00;;;;4941862;28;20452;-84
2022/12/19 11:13:38;;;;;;;16.57;11.50;;;1.30;99.90;2.10;98342.00;;;;4973984;28;20467;-84
2022/12/19 11:16:36;;;;;;;20.33;12.27;;;1.20;99.90;2.20;98341.00;;;;4939307;28;20456;-84
2022/12/19 11:19:33;;;;;;;22.63;10.17;;;1.10;99.90;2.20;98333.00;;;;4974333;28;20461;-84
2022/12/19 11:22:24;;;;;;;15.53;9.03;;;1.10;99.90;2.20;98324.00;;;;5051051;28;20471;-84
2022/12/19 11:25:20;;;;;;;17.53;10.20;;;1.10;99.90;2.40;98313.00;;;;5049017;28;20439;-84
2022/12/19 11:28:19;;;;;;;24.77;10.50;;;1.20;99.90;2.60;98334.00;;;;4998783;28;20431;-84
2022/12/19 11:31:20;;;;;;;15.33;9.93;;;1.30;99.90;2.50;98326.00;;;;5013909;28;20447;-84
2022/12/19 11:34:34;;;;;;;17.77;10.77;;;1.30;99.90;2.60;98334.00;;;;4982998;28;20506;-84
2022/12/19 11:37:34;;;;;;;15.53;9.63;;;1.40;99.90;1.90;98319.00;;;;4969254;28;20439;-84
2022/12/19 11:40:33;;;;;;;15.27;9.77;;;1.40;99.90;1.90;98310.00;;;;5000561;28;20419;-84
2022/12/19 11:43:27;;;;;;;15.03;10.13;;;1.30;99.90;2.40;98309.00;;;;5048842;28;20454;-84
2022/12/19 11:46:42;;;;;;;15.27;9.77;;;1.30;99.90;2.10;98315.00;;;;4941064;28;20989;-84
2022/12/19 11:49:39;;;;;;;18.80;10.83;;;1.30;99.90;1.30;98303.00;;;;5006357;28;20435;-84
2022/12/19 11:52:41;;;;;;;17.43;10.00;;;1.20;99.90;1.10;98294.00;;;;5024258;28;20448;-84
2022/12/19 11:55:54;;;;;;;15.50;10.67;;;0.90;99.90;1.70;98301.00;;;;4972124;28;20438;-84
2022/12/19 11:58:50;;;;;;;15.33;10.73;;;0.80;99.90;1.90;98305.00;;;;4960434;28;20443;-84
2022/12/19 12:02:00;;;;;;;17.93;9.90;;;0.80;99.90;1.30;98293.00;;;;4954737;28;20465;-84
2022/12/19 12:05:35;;;;;;;22.40;11.37;;;0.70;99.90;2.10;98297.00;;;;4975467;28;20950;-84
2022/12/19 12:08:59;;;;;;;18.90;10.23;;;0.80;99.90;1.80;98300.00;;;;5056119;28;20431;-84
2022/12/19 12:11:54;;;;;;;17.73;11.53;;;0.80;99.90;2.10;98309.00;;;;4981468;28;20444;-84
2022/12/19 12:15:00;;;;;;;16.37;10.30;;;0.90;99.90;1.80;98302.00;;;;4947988;28;21180;-84
2022/12/19 12:17:59;;;;;;;17.40;10.97;;;0.90;99.90;1.80;98296.00;;;;4945116;28;20845;-84
2022/12/19 12:20:59;;;;;;;18.40;10.80;;;0.90;99.90;1.60;98281.00;;;;4967940;28;20546;-84
2022/12/19 12:24:06;;;;;;;15.97;9.67;;;0.90;99.90;1.80;98275.00;;;;5051954;28;20463;-84
2022/12/19 12:27:09;;;;;;;16.70;10.57;;;0.80;99.90;1.60;98280.00;;;;4983651;28;20443;-84
2022/12/19 12:30:05;;;;;;;15.93;10.37;;;0.80;99.90;1.90;98274.00;;;;4946377;28;20524;-84
2022/12/19 12:33:10;;;;;;;16.77;10.83;;;1.50;99.90;1.60;98273.00;;;;4942463;28;20444;-84
2022/12/19 12:36:05;;;;;;;17.10;10.63;;;1.20;99.90;1.10;98256.00;;;;4949634;28;20471;-84
2022/12/19 12:39:21;;;;;;;26.87;10.93;;;0.70;99.90;1.80;98262.00;;;;4985177;28;20423;-84
2022/12/19 12:42:30;;;;;;;18.17;11.43;;;1.00;99.90;1.70;98265.00;;;;4996971;28;20478;-84